sensor_id;sensor_type;location;lat;lon;timestamp;pressure;altitude;pressure_sealevel;temperature;humidity
47983;BME280;33751;50.816;-1.214;2023-01-08T00:00:44;99778.75;;;10.89;100.00
47983;BME280;33751;50.816;-1.214;2023-01-08T00:03:12;99767.84;;;10.94;100.00
47983;BME280;33751;50.816;-1.214;2023-01-08T00:05:40;99767.26;;;10.75;100.00
47983;BME280;33751;50.816;-1.214;2023-01-08T00:08:07;99772.91;;;11.32;100.00
47983;BME280;33751;50.816;-1.214;2023-01-08T00:10:34;99772.39;;;11.25;100.00
47983;BME280;33751;50.816;-1.214;2023-01-08T00:13:01;99771.16;;;11.42;100.00
47983;BME280;33751;50.816;-1.214;2023-01-08T00:15:28;99771.28;;;11.27;100.00
47983;BME280;33751;50.816;-1.214;2023-01-08T00:17:56;99776.28;;;11.37;100.00
47983;BME280;33751;50.816;-1.214;2023-01-08T00:20:23;99768.31;;;10.95;100.00
47983;BME280;33751;50.816;-1.214;2023-01-08T00:22:51;99767.77;;;10.65;100.00
47983;BME280;33751;50.816;-1.214;2023-01-08T00:25:18;99768.77;;;11.20;100.00
47983;BME280;33751;50.816;-1.214;2023-01-08T00:27:45;99765.21;;;10.90;100.00
47983;BME280;33751;50.816;-1.214;2023-01-08T00:30:13;99767.70;;;11.12;100.00
47983;BME280;33751;50.816;-1.214;2023-01-08T00:32:40;99759.28;;;10.94;100.00
47983;BME280;33751;50.816;-1.214;2023-01-08T00:35:08;99759.56;;;11.22;100.00
47983;BME280;33751;50.816;-1.214;2023-01-08T00:37:36;99750.68;;;11.12;100.00
47983;BME280;33751;50.816;-1.214;2023-01-08T00:40:04;99752.95;;;10.71;100.00
47983;BME280;33751;50.816;-1.214;2023-01-08T00:42:31;99749.82;;;11.17;100.00
47983;BME280;33751;50.816;-1.214;2023-01-08T00:44:58;99750.97;;;10.93;100.00
47983;BME280;33751;50.816;-1.214;2023-01-08T00:47:24;99754.41;;;11.15;100.00
47983;BME280;33751;50.816;-1.214;2023-01-08T00:49:51;99748.83;;;10.89;100.00
47983;BME280;33751;50.816;-1.214;2023-01-08T00:52:18;99760.87;;;11.18;100.00
47983;BME280;33751;50.816;-1.214;2023-01-08T00:54:44;99771.02;;;10.56;100.00
47983;BME280;33751;50.816;-1.214;2023-01-08T00:57:11;99754.18;;;10.92;100.00
47983;BME280;33751;50.816;-1.214;2023-01-08T00:59:38;99760.00;;;10.08;100.00
47983;BME280;33751;50.816;-1.214;2023-01-08T01:02:04;99744.95;;;10.39;100.00
47983;BME280;33751;50.816;-1.214;2023-01-08T01:04:32;99742.30;;;10.63;100.00
47983;BME280;33751;50.816;-1.214;2023-01-08T01:06:58;99739.63;;;10.73;100.00
47983;BME280;33751;50.816;-1.214;2023-01-08T01:09:25;99738.57;;;10.76;100.00
47983;BME280;33751;50.816;-1.214;2023-01-08T01:11:52;99736.91;;;10.66;100.00
47983;BME280;33751;50.816;-1.214;2023-01-08T01:14:19;99727.63;;;10.95;100.00
47983;BME280;33751;50.816;-1.214;2023-01-08T01:16:46;99726.99;;;11.09;100.00
47983;BME280;33751;50.816;-1.214;2023-01-08T01:19:14;99739.02;;;11.06;100.00
47983;BME280;33751;50.816;-1.214;2023-01-08T01:21:41;99739.79;;;10.58;100.00
47983;BME280;33751;50.816;-1.214;2023-01-08T01:24:10;99741.75;;;10.34;100.00
47983;BME280;33751;50.816;-1.214;2023-01-08T01:26:38;99720.01;;;10.49;100.00
47983;BME280;33751;50.816;-1.214;2023-01-08T01:29:04;99731.24;;;10.29;100.00
47983;BME280;33751;50.816;-1.214;2023-01-08T01:31:32;99726.35;;;10.07;100.00
47983;BME280;33751;50.816;-1.214;2023-01-08T01:33:59;99724.45;;;9.97;100.00
47983;BME280;33751;50.816;-1.214;2023-01-08T01:36:26;99721.59;;;10.17;100.00
47983;BME280;33751;50.816;-1.214;2023-01-08T01:38:55;99716.04;;;10.51;100.00
47983;BME280;33751;50.816;-1.214;2023-01-08T01:41:25;99713.42;;;10.41;100.00
47983;BME280;33751;50.816;-1.214;2023-01-08T01:43:54;99718.70;;;10.15;100.00
47983;BME280;33751;50.816;-1.214;2023-01-08T01:46:29;99712.18;;;10.42;100.00
47983;BME280;33751;50.816;-1.214;2023-01-08T01:49:03;99703.83;;;10.41;100.00
47983;BME280;33751;50.816;-1.214;2023-01-08T01:51:33;99701.40;;;10.41;100.00
47983;BME280;33751;50.816;-1.214;2023-01-08T01:54:04;99692.05;;;10.13;100.00
47983;BME280;33751;50.816;-1.214;2023-01-08T01:56:33;99684.12;;;10.27;100.00
47983;BME280;33751;50.816;-1.214;2023-01-08T01:59:00;99690.90;;;10.19;100.00
47983;BME280;33751;50.816;-1.214;2023-01-08T02:01:29;99687.86;;;10.03;100.00
47983;BME280;33751;50.816;-1.214;2023-01-08T02:03:57;99687.80;;;10.18;100.00
47983;BME280;33751;50.816;-1.214;2023-01-08T02:06:33;99694.32;;;10.62;100.00
47983;BME280;33751;50.816;-1.214;2023-01-08T02:09:05;99693.35;;;10.33;100.00
47983;BME280;33751;50.816;-1.214;2023-01-08T02:11:43;99686.04;;;10.76;100.00
47983;BME280;33751;50.816;-1.214;2023-01-08T02:14:16;99692.54;;;10.36;100.00
47983;BME280;33751;50.816;-1.214;2023-01-08T02:16:50;99691.52;;;10.51;100.00
47983;BME280;33751;50.816;-1.214;2023-01-08T02:19:29;99692.16;;;10.53;100.00
47983;BME280;33751;50.816;-1.214;2023-01-08T02:22:09;99695.03;;;10.41;100.00
47983;BME280;33751;50.816;-1.214;2023-01-08T02:24:49;99707.36;;;10.18;100.00
47983;BME280;33751;50.816;-1.214;2023-01-08T02:27:20;99704.02;;;10.89;100.00
47983;BME280;33751;50.816;-1.214;2023-01-08T02:29:50;99706.94;;;10.61;100.00
47983;BME280;33751;50.816;-1.214;2023-01-08T02:32:22;99716.33;;;10.65;100.00
47983;BME280;33751;50.816;-1.214;2023-01-08T02:34:51;99716.28;;;10.72;100.00
47983;BME280;33751;50.816;-1.214;2023-01-08T02:37:18;99716.99;;;10.54;100.00
47983;BME280;33751;50.816;-1.214;2023-01-08T02:40:00;99707.76;;;10.35;100.00
47983;BME280;33751;50.816;-1.214;2023-01-08T02:42:34;99708.19;;;10.94;100.00
47983;BME280;33751;50.816;-1.214;2023-01-08T02:45:12;99708.72;;;10.58;100.00
47983;BME280;33751;50.816;-1.214;2023-01-08T02:47:44;99708.30;;;10.51;100.00
47983;BME280;33751;50.816;-1.214;2023-01-08T02:50:17;99705.69;;;10.56;100.00
47983;BME280;33751;50.816;-1.214;2023-01-08T02:52:52;99699.87;;;10.68;100.00
47983;BME280;33751;50.816;-1.214;2023-01-08T02:55:23;99701.40;;;10.70;100.00
47983;BME280;33751;50.816;-1.214;2023-01-08T02:57:52;99697.04;;;10.31;100.00
47983;BME280;33751;50.816;-1.214;2023-01-08T03:00:19;99691.63;;;10.55;100.00
47983;BME280;33751;50.816;-1.214;2023-01-08T03:02:48;99701.61;;;10.65;100.00
47983;BME280;33751;50.816;-1.214;2023-01-08T03:05:21;99701.75;;;10.64;100.00
47983;BME280;33751;50.816;-1.214;2023-01-08T03:07:48;99697.61;;;10.92;100.00
47983;BME280;33751;50.816;-1.214;2023-01-08T03:10:17;99703.34;;;10.73;100.00
47983;BME280;33751;50.816;-1.214;2023-01-08T03:12:50;99695.96;;;10.61;100.00
47983;BME280;33751;50.816;-1.214;2023-01-08T03:15:24;99709.48;;;10.67;100.00
47983;BME280;33751;50.816;-1.214;2023-01-08T03:17:56;99723.09;;;10.57;100.00
47983;BME280;33751;50.816;-1.214;2023-01-08T03:20:24;99714.39;;;10.26;100.00
47983;BME280;33751;50.816;-1.214;2023-01-08T03:22:54;99709.34;;;10.11;100.00
47983;BME280;33751;50.816;-1.214;2023-01-08T03:25:25;99704.99;;;10.31;100.00
47983;BME280;33751;50.816;-1.214;2023-01-08T03:27:56;99697.90;;;9.85;100.00
47983;BME280;33751;50.816;-1.214;2023-01-08T03:30:26;99703.96;;;10.04;100.00
47983;BME280;33751;50.816;-1.214;2023-01-08T03:32:56;99703.26;;;9.87;100.00
47983;BME280;33751;50.816;-1.214;2023-01-08T03:35:24;99703.56;;;9.54;100.00
47983;BME280;33751;50.816;-1.214;2023-01-08T03:37:56;99703.30;;;9.63;100.00
47983;BME280;33751;50.816;-1.214;2023-01-08T03:40:30;99704.73;;;9.82;100.00
47983;BME280;33751;50.816;-1.214;2023-01-08T03:43:00;99718.55;;;9.97;100.00
47983;BME280;33751;50.816;-1.214;2023-01-08T03:45:28;99717.19;;;9.92;100.00
47983;BME280;33751;50.816;-1.214;2023-01-08T03:47:58;99714.36;;;9.69;100.00
47983;BME280;33751;50.816;-1.214;2023-01-08T03:50:29;99709.68;;;9.75;100.00
47983;BME280;33751;50.816;-1.214;2023-01-08T03:52:57;99712.52;;;9.92;100.00
47983;BME280;33751;50.816;-1.214;2023-01-08T03:55:24;99712.64;;;9.79;100.00
47983;BME280;33751;50.816;-1.214;2023-01-08T03:57:51;99710.76;;;9.45;100.00
47983;BME280;33751;50.816;-1.214;2023-01-08T04:00:18;99705.06;;;9.59;100.00
47983;BME280;33751;50.816;-1.214;2023-01-08T04:02:45;99689.71;;;9.55;100.00
47983;BME280;33751;50.816;-1.214;2023-01-08T04:05:12;99685.10;;;9.41;100.00
47983;BME280;33751;50.816;-1.214;2023-01-08T04:07:39;99682.42;;;8.87;100.00
47983;BME280;33751;50.816;-1.214;2023-01-08T04:10:07;99676.67;;;9.34;100.00
47983;BME280;33751;50.816;-1.214;2023-01-08T04:12:34;99666.75;;;9.24;100.00
47983;BME280;33751;50.816;-1.214;2023-01-08T04:15:00;99666.08;;;9.42;100.00
47983;BME280;33751;50.816;-1.214;2023-01-08T04:17:28;99658.53;;;9.30;100.00
47983;BME280;33751;50.816;-1.214;2023-01-08T04:19:55;99663.33;;;9.27;100.00
47983;BME280;33751;50.816;-1.214;2023-01-08T04:22:22;99660.79;;;9.46;100.00
47983;BME280;33751;50.816;-1.214;2023-01-08T04:24:49;99657.55;;;9.42;100.00
47983;BME280;33751;50.816;-1.214;2023-01-08T04:27:16;99659.57;;;9.47;100.00
47983;BME280;33751;50.816;-1.214;2023-01-08T04:29:43;99657.39;;;9.08;100.00
47983;BME280;33751;50.816;-1.214;2023-01-08T04:32:09;99646.22;;;9.33;100.00
47983;BME280;33751;50.816;-1.214;2023-01-08T04:34:37;99645.47;;;8.97;100.00
47983;BME280;33751;50.816;-1.214;2023-01-08T04:37:04;99639.85;;;9.09;100.00
47983;BME280;33751;50.816;-1.214;2023-01-08T04:39:31;99637.19;;;8.96;100.00
47983;BME280;33751;50.816;-1.214;2023-01-08T04:41:58;99638.68;;;9.09;100.00
47983;BME280;33751;50.816;-1.214;2023-01-08T04:44:26;99637.52;;;9.19;100.00
47983;BME280;33751;50.816;-1.214;2023-01-08T04:46:53;99626.78;;;9.01;100.00
47983;BME280;33751;50.816;-1.214;2023-01-08T04:49:19;99618.88;;;8.86;100.00
47983;BME280;33751;50.816;-1.214;2023-01-08T04:51:46;99619.41;;;9.05;100.00
47983;BME280;33751;50.816;-1.214;2023-01-08T04:54:13;99623.74;;;8.80;100.00
47983;BME280;33751;50.816;-1.214;2023-01-08T04:56:40;99619.51;;;8.90;100.00
47983;BME280;33751;50.816;-1.214;2023-01-08T04:59:08;99618.16;;;9.15;100.00
47983;BME280;33751;50.816;-1.214;2023-01-08T05:01:35;99614.31;;;8.91;100.00
47983;BME280;33751;50.816;-1.214;2023-01-08T05:04:04;99605.90;;;9.33;100.00
47983;BME280;33751;50.816;-1.214;2023-01-08T05:06:31;99604.91;;;9.08;100.00
47983;BME280;33751;50.816;-1.214;2023-01-08T05:08:58;99598.13;;;8.89;100.00
47983;BME280;33751;50.816;-1.214;2023-01-08T05:11:25;99593.05;;;9.22;100.00
47983;BME280;33751;50.816;-1.214;2023-01-08T05:13:53;99600.47;;;9.12;100.00
47983;BME280;33751;50.816;-1.214;2023-01-08T05:16:20;99604.80;;;9.52;100.00
47983;BME280;33751;50.816;-1.214;2023-01-08T05:18:48;99608.14;;;9.15;100.00
47983;BME280;33751;50.816;-1.214;2023-01-08T05:21:15;99605.90;;;9.40;100.00
47983;BME280;33751;50.816;-1.214;2023-01-08T05:23:45;99619.01;;;9.42;100.00
47983;BME280;33751;50.816;-1.214;2023-01-08T05:26:13;99607.52;;;9.62;100.00
47983;BME280;33751;50.816;-1.214;2023-01-08T05:28:41;99621.72;;;9.27;100.00
47983;BME280;33751;50.816;-1.214;2023-01-08T05:31:08;99609.75;;;9.53;100.00
47983;BME280;33751;50.816;-1.214;2023-01-08T05:33:35;99621.37;;;9.41;100.00
47983;BME280;33751;50.816;-1.214;2023-01-08T05:36:04;99610.26;;;9.38;100.00
47983;BME280;33751;50.816;-1.214;2023-01-08T05:38:31;99601.14;;;9.42;100.00
47983;BME280;33751;50.816;-1.214;2023-01-08T05:40:59;99600.06;;;9.48;100.00
47983;BME280;33751;50.816;-1.214;2023-01-08T05:43:26;99585.39;;;9.36;100.00
47983;BME280;33751;50.816;-1.214;2023-01-08T05:45:53;99579.69;;;9.44;100.00
47983;BME280;33751;50.816;-1.214;2023-01-08T05:48:20;99572.78;;;9.32;100.00
47983;BME280;33751;50.816;-1.214;2023-01-08T05:50:48;99565.14;;;9.43;100.00
47983;BME280;33751;50.816;-1.214;2023-01-08T05:53:15;99565.39;;;9.71;100.00
47983;BME280;33751;50.816;-1.214;2023-01-08T05:55:41;99567.10;;;9.12;100.00
47983;BME280;33751;50.816;-1.214;2023-01-08T05:58:08;99559.22;;;9.49;100.00
47983;BME280;33751;50.816;-1.214;2023-01-08T06:00:35;99565.57;;;9.42;100.00
47983;BME280;33751;50.816;-1.214;2023-01-08T06:03:03;99571.84;;;9.53;100.00
47983;BME280;33751;50.816;-1.214;2023-01-08T06:05:31;99574.86;;;9.62;100.00
47983;BME280;33751;50.816;-1.214;2023-01-08T06:07:58;99581.44;;;9.52;100.00
47983;BME280;33751;50.816;-1.214;2023-01-08T06:10:26;99576.12;;;9.52;100.00
47983;BME280;33751;50.816;-1.214;2023-01-08T06:12:53;99564.94;;;9.25;100.00
47983;BME280;33751;50.816;-1.214;2023-01-08T06:15:20;99561.99;;;9.77;100.00
47983;BME280;33751;50.816;-1.214;2023-01-08T06:17:47;99565.65;;;9.52;100.00
47983;BME280;33751;50.816;-1.214;2023-01-08T06:20:14;99580.32;;;9.72;100.00
47983;BME280;33751;50.816;-1.214;2023-01-08T06:22:40;99577.62;;;9.47;100.00
47983;BME280;33751;50.816;-1.214;2023-01-08T06:25:07;99572.41;;;9.84;100.00
47983;BME280;33751;50.816;-1.214;2023-01-08T06:27:34;99572.87;;;9.87;100.00
47983;BME280;33751;50.816;-1.214;2023-01-08T06:30:01;99573.39;;;9.86;100.00
47983;BME280;33751;50.816;-1.214;2023-01-08T06:32:28;99572.77;;;9.92;100.00
47983;BME280;33751;50.816;-1.214;2023-01-08T06:34:55;99571.96;;;9.87;100.00
47983;BME280;33751;50.816;-1.214;2023-01-08T06:37:22;99573.13;;;9.82;100.00
47983;BME280;33751;50.816;-1.214;2023-01-08T06:39:49;99572.10;;;9.70;100.00
47983;BME280;33751;50.816;-1.214;2023-01-08T06:42:15;99575.36;;;10.13;100.00
47983;BME280;33751;50.816;-1.214;2023-01-08T06:44:43;99571.19;;;9.77;100.00
47983;BME280;33751;50.816;-1.214;2023-01-08T06:47:10;99570.01;;;9.62;100.00
47983;BME280;33751;50.816;-1.214;2023-01-08T06:49:37;99569.44;;;9.65;100.00
47983;BME280;33751;50.816;-1.214;2023-01-08T06:52:03;99563.59;;;9.67;100.00
47983;BME280;33751;50.816;-1.214;2023-01-08T06:54:30;99556.18;;;9.57;100.00
47983;BME280;33751;50.816;-1.214;2023-01-08T06:56:56;99550.71;;;9.63;100.00
47983;BME280;33751;50.816;-1.214;2023-01-08T06:59:23;99551.22;;;10.18;100.00
47983;BME280;33751;50.816;-1.214;2023-01-08T07:01:50;99549.39;;;9.55;100.00
47983;BME280;33751;50.816;-1.214;2023-01-08T07:04:17;99554.09;;;9.85;100.00
47983;BME280;33751;50.816;-1.214;2023-01-08T07:06:44;99557.35;;;9.43;100.00
47983;BME280;33751;50.816;-1.214;2023-01-08T07:09:11;99558.03;;;9.65;100.00
47983;BME280;33751;50.816;-1.214;2023-01-08T07:11:39;99555.07;;;9.27;100.00
47983;BME280;33751;50.816;-1.214;2023-01-08T07:14:07;99549.59;;;9.85;100.00
47983;BME280;33751;50.816;-1.214;2023-01-08T07:16:34;99550.45;;;9.56;100.00
47983;BME280;33751;50.816;-1.214;2023-01-08T07:19:01;99541.23;;;9.69;100.00
47983;BME280;33751;50.816;-1.214;2023-01-08T07:21:28;99542.19;;;9.89;100.00
47983;BME280;33751;50.816;-1.214;2023-01-08T07:23:54;99532.86;;;9.97;100.00
47983;BME280;33751;50.816;-1.214;2023-01-08T07:26:21;99537.57;;;10.04;100.00
47983;BME280;33751;50.816;-1.214;2023-01-08T07:28:47;99534.61;;;9.92;100.00
47983;BME280;33751;50.816;-1.214;2023-01-08T07:31:14;99536.72;;;10.20;100.00
47983;BME280;33751;50.816;-1.214;2023-01-08T07:33:40;99537.85;;;9.90;100.00
47983;BME280;33751;50.816;-1.214;2023-01-08T07:36:08;99538.68;;;10.01;100.00
47983;BME280;33751;50.816;-1.214;2023-01-08T07:38:34;99532.49;;;9.91;100.00
47983;BME280;33751;50.816;-1.214;2023-01-08T07:41:02;99535.97;;;10.11;100.00
47983;BME280;33751;50.816;-1.214;2023-01-08T07:43:29;99524.99;;;10.00;100.00
47983;BME280;33751;50.816;-1.214;2023-01-08T07:45:56;99525.77;;;9.82;100.00
47983;BME280;33751;50.816;-1.214;2023-01-08T07:48:22;99520.04;;;9.86;100.00
47983;BME280;33751;50.816;-1.214;2023-01-08T07:50:49;99511.65;;;10.12;100.00
47983;BME280;33751;50.816;-1.214;2023-01-08T07:53:16;99501.76;;;10.14;100.00
47983;BME280;33751;50.816;-1.214;2023-01-08T07:55:43;99493.83;;;9.95;100.00
47983;BME280;33751;50.816;-1.214;2023-01-08T07:58:11;99495.79;;;9.66;100.00
47983;BME280;33751;50.816;-1.214;2023-01-08T08:00:39;99489.83;;;9.46;100.00
47983;BME280;33751;50.816;-1.214;2023-01-08T08:03:07;99486.79;;;10.00;100.00
47983;BME280;33751;50.816;-1.214;2023-01-08T08:05:35;99491.34;;;10.09;100.00
47983;BME280;33751;50.816;-1.214;2023-01-08T08:08:07;99492.47;;;9.81;100.00
47983;BME280;33751;50.816;-1.214;2023-01-08T08:10:34;99484.26;;;9.85;100.00
47983;BME280;33751;50.816;-1.214;2023-01-08T08:13:00;99476.51;;;9.76;100.00
47983;BME280;33751;50.816;-1.214;2023-01-08T08:15:27;99477.62;;;9.91;100.00
47983;BME280;33751;50.816;-1.214;2023-01-08T08:17:54;99479.53;;;9.92;100.00
47983;BME280;33751;50.816;-1.214;2023-01-08T08:20:21;99469.29;;;10.07;100.00
47983;BME280;33751;50.816;-1.214;2023-01-08T08:22:48;99467.44;;;10.29;100.00
47983;BME280;33751;50.816;-1.214;2023-01-08T08:25:14;99459.00;;;10.50;100.00
47983;BME280;33751;50.816;-1.214;2023-01-08T08:27:43;99450.81;;;10.29;100.00
47983;BME280;33751;50.816;-1.214;2023-01-08T08:30:11;99437.82;;;10.41;100.00
47983;BME280;33751;50.816;-1.214;2023-01-08T08:32:38;99423.61;;;10.37;100.00
47983;BME280;33751;50.816;-1.214;2023-01-08T08:35:06;99414.48;;;10.46;100.00
47983;BME280;33751;50.816;-1.214;2023-01-08T08:37:33;99417.86;;;10.77;100.00
47983;BME280;33751;50.816;-1.214;2023-01-08T08:40:00;99417.36;;;10.83;100.00
47983;BME280;33751;50.816;-1.214;2023-01-08T08:42:26;99411.77;;;10.99;100.00
47983;BME280;33751;50.816;-1.214;2023-01-08T08:44:53;99399.01;;;10.57;100.00
47983;BME280;33751;50.816;-1.214;2023-01-08T08:47:20;99404.53;;;10.59;100.00
47983;BME280;33751;50.816;-1.214;2023-01-08T08:49:47;99405.43;;;10.42;100.00
47983;BME280;33751;50.816;-1.214;2023-01-08T08:52:13;99403.87;;;10.06;100.00
47983;BME280;33751;50.816;-1.214;2023-01-08T08:54:40;99400.86;;;10.72;100.00
47983;BME280;33751;50.816;-1.214;2023-01-08T08:57:08;99403.56;;;10.95;100.00
47983;BME280;33751;50.816;-1.214;2023-01-08T08:59:36;99397.80;;;10.81;100.00
47983;BME280;33751;50.816;-1.214;2023-01-08T09:02:04;99393.92;;;10.95;100.00
47983;BME280;33751;50.816;-1.214;2023-01-08T09:04:32;99399.66;;;10.53;100.00
47983;BME280;33751;50.816;-1.214;2023-01-08T09:06:59;99401.21;;;10.83;100.00
47983;BME280;33751;50.816;-1.214;2023-01-08T09:09:26;99387.04;;;11.02;100.00
47983;BME280;33751;50.816;-1.214;2023-01-08T09:11:53;99400.92;;;10.87;100.00
47983;BME280;33751;50.816;-1.214;2023-01-08T09:14:20;99398.43;;;11.22;100.00
47983;BME280;33751;50.816;-1.214;2023-01-08T09:16:47;99395.00;;;10.76;100.00
47983;BME280;33751;50.816;-1.214;2023-01-08T09:19:14;99401.27;;;11.08;100.00
47983;BME280;33751;50.816;-1.214;2023-01-08T09:21:42;99400.79;;;10.84;100.00
47983;BME280;33751;50.816;-1.214;2023-01-08T09:24:08;99377.50;;;10.84;100.00
47983;BME280;33751;50.816;-1.214;2023-01-08T09:26:36;99384.75;;;10.91;100.00
47983;BME280;33751;50.816;-1.214;2023-01-08T09:29:03;99387.01;;;10.78;100.00
47983;BME280;33751;50.816;-1.214;2023-01-08T09:31:31;99382.75;;;11.03;100.00
47983;BME280;33751;50.816;-1.214;2023-01-08T09:33:59;99375.87;;;11.00;100.00
47983;BME280;33751;50.816;-1.214;2023-01-08T09:36:26;99369.28;;;11.01;100.00
47983;BME280;33751;50.816;-1.214;2023-01-08T09:38:53;99369.39;;;11.09;100.00
47983;BME280;33751;50.816;-1.214;2023-01-08T09:41:24;99361.70;;;11.21;100.00
47983;BME280;33751;50.816;-1.214;2023-01-08T09:43:55;99362.79;;;10.89;100.00
47983;BME280;33751;50.816;-1.214;2023-01-08T09:46:25;99362.52;;;11.39;100.00
47983;BME280;33751;50.816;-1.214;2023-01-08T09:48:54;99360.01;;;11.41;100.00
47983;BME280;33751;50.816;-1.214;2023-01-08T09:51:29;99353.85;;;11.37;100.00
47983;BME280;33751;50.816;-1.214;2023-01-08T09:53:56;99358.82;;;11.49;100.00
47983;BME280;33751;50.816;-1.214;2023-01-08T09:56:24;99358.15;;;11.35;100.00
47983;BME280;33751;50.816;-1.214;2023-01-08T09:58:54;99354.86;;;11.73;100.00
47983;BME280;33751;50.816;-1.214;2023-01-08T10:01:23;99353.25;;;11.11;100.00
47983;BME280;33751;50.816;-1.214;2023-01-08T10:03:56;99350.03;;;11.47;100.00
47983;BME280;33751;50.816;-1.214;2023-01-08T10:06:25;99358.97;;;11.25;100.00
47983;BME280;33751;50.816;-1.214;2023-01-08T10:08:51;99346.28;;;11.20;100.00
47983;BME280;33751;50.816;-1.214;2023-01-08T10:11:19;99349.03;;;11.86;100.00
47983;BME280;33751;50.816;-1.214;2023-01-08T10:13:51;99341.97;;;11.52;100.00
47983;BME280;33751;50.816;-1.214;2023-01-08T10:16:24;99353.13;;;11.60;100.00
47983;BME280;33751;50.816;-1.214;2023-01-08T10:18:52;99349.58;;;11.03;100.00
47983;BME280;33751;50.816;-1.214;2023-01-08T10:21:24;99348.00;;;11.05;100.00
47983;BME280;33751;50.816;-1.214;2023-01-08T10:23:54;99339.84;;;11.33;100.00
47983;BME280;33751;50.816;-1.214;2023-01-08T10:26:26;99343.30;;;11.45;100.00
47983;BME280;33751;50.816;-1.214;2023-01-08T10:29:05;99338.59;;;11.01;100.00
47983;BME280;33751;50.816;-1.214;2023-01-08T10:31:33;99331.40;;;11.49;100.00
47983;BME280;33751;50.816;-1.214;2023-01-08T10:34:08;99325.15;;;11.04;100.00
47983;BME280;33751;50.816;-1.214;2023-01-08T10:36:39;99324.45;;;11.02;100.00
47983;BME280;33751;50.816;-1.214;2023-01-08T10:39:18;99323.26;;;10.66;100.00
47983;BME280;33751;50.816;-1.214;2023-01-08T10:41:47;99322.23;;;11.21;100.00
47983;BME280;33751;50.816;-1.214;2023-01-08T10:44:16;99333.85;;;11.31;100.00
47983;BME280;33751;50.816;-1.214;2023-01-08T10:46:45;99317.40;;;10.87;100.00
47983;BME280;33751;50.816;-1.214;2023-01-08T10:49:16;99312.16;;;11.08;100.00
47983;BME280;33751;50.816;-1.214;2023-01-08T10:51:49;99299.15;;;10.91;100.00
47983;BME280;33751;50.816;-1.214;2023-01-08T10:54:28;99289.00;;;11.28;100.00
47983;BME280;33751;50.816;-1.214;2023-01-08T10:56:57;99290.21;;;11.28;100.00
47983;BME280;33751;50.816;-1.214;2023-01-08T10:59:24;99287.03;;;11.32;100.00
47983;BME280;33751;50.816;-1.214;2023-01-08T11:01:53;99283.28;;;11.44;100.00
47983;BME280;33751;50.816;-1.214;2023-01-08T11:04:26;99286.95;;;11.20;100.00
47983;BME280;33751;50.816;-1.214;2023-01-08T11:06:55;99277.56;;;11.14;100.00
47983;BME280;33751;50.816;-1.214;2023-01-08T11:09:23;99265.34;;;11.29;100.00
47983;BME280;33751;50.816;-1.214;2023-01-08T11:11:53;99255.01;;;11.56;100.00
47983;BME280;33751;50.816;-1.214;2023-01-08T11:14:23;99256.69;;;11.83;100.00
47983;BME280;33751;50.816;-1.214;2023-01-08T11:16:51;99256.65;;;11.44;100.00
47983;BME280;33751;50.816;-1.214;2023-01-08T11:19:23;99255.14;;;11.51;100.00
47983;BME280;33751;50.816;-1.214;2023-01-08T11:21:57;99244.75;;;11.05;100.00
47983;BME280;33751;50.816;-1.214;2023-01-08T11:24:26;99233.40;;;10.99;100.00
47983;BME280;33751;50.816;-1.214;2023-01-08T11:27:00;99231.90;;;11.76;100.00
47983;BME280;33751;50.816;-1.214;2023-01-08T11:29:36;99231.42;;;11.48;100.00
47983;BME280;33751;50.816;-1.214;2023-01-08T11:32:44;99219.99;;;11.34;100.00
47983;BME280;33751;50.816;-1.214;2023-01-08T11:35:16;99216.79;;;12.16;100.00
47983;BME280;33751;50.816;-1.214;2023-01-08T11:37:49;99209.96;;;11.64;100.00
47983;BME280;33751;50.816;-1.214;2023-01-08T11:40:23;99216.20;;;11.68;100.00
47983;BME280;33751;50.816;-1.214;2023-01-08T11:43:10;99202.86;;;11.63;100.00
47983;BME280;33751;50.816;-1.214;2023-01-08T11:45:49;99194.50;;;11.21;100.00
47983;BME280;33751;50.816;-1.214;2023-01-08T11:48:32;99196.71;;;12.13;100.00
47983;BME280;33751;50.816;-1.214;2023-01-08T11:51:19;99189.03;;;11.82;100.00
47983;BME280;33751;50.816;-1.214;2023-01-08T11:53:59;99184.54;;;11.75;100.00
47983;BME280;33751;50.816;-1.214;2023-01-08T11:56:42;99183.14;;;11.58;100.00
47983;BME280;33751;50.816;-1.214;2023-01-08T11:59:19;99167.82;;;11.49;100.00
47983;BME280;33751;50.816;-1.214;2023-01-08T12:01:59;99163.79;;;11.65;100.00
47983;BME280;33751;50.816;-1.214;2023-01-08T12:04:52;99162.55;;;11.45;100.00
47983;BME280;33751;50.816;-1.214;2023-01-08T12:07:29;99152.67;;;11.96;100.00
47983;BME280;33751;50.816;-1.214;2023-01-08T12:10:03;99165.15;;;11.79;100.00
47983;BME280;33751;50.816;-1.214;2023-01-08T12:12:45;99157.82;;;12.26;100.00
47983;BME280;33751;50.816;-1.214;2023-01-08T12:15:19;99148.08;;;11.87;100.00
47983;BME280;33751;50.816;-1.214;2023-01-08T12:18:01;99146.06;;;12.07;100.00
47983;BME280;33751;50.816;-1.214;2023-01-08T12:20:37;99136.38;;;11.86;100.00
47983;BME280;33751;50.816;-1.214;2023-01-08T12:23:16;99140.27;;;11.59;100.00
47983;BME280;33751;50.816;-1.214;2023-01-08T12:26:01;99129.05;;;11.75;100.00
47983;BME280;33751;50.816;-1.214;2023-01-08T12:28:49;99119.98;;;11.55;100.00
47983;BME280;33751;50.816;-1.214;2023-01-08T12:31:34;99109.73;;;11.54;100.00
47983;BME280;33751;50.816;-1.214;2023-01-08T12:34:11;99100.49;;;11.09;100.00
47983;BME280;33751;50.816;-1.214;2023-01-08T12:36:41;99094.58;;;10.53;100.00
47983;BME280;33751;50.816;-1.214;2023-01-08T12:39:12;99093.69;;;11.87;100.00
47983;BME280;33751;50.816;-1.214;2023-01-08T12:41:43;99094.87;;;11.37;100.00
47983;BME280;33751;50.816;-1.214;2023-01-08T12:44:11;99084.17;;;11.73;100.00
47983;BME280;33751;50.816;-1.214;2023-01-08T12:46:44;99073.13;;;11.05;100.00
47983;BME280;33751;50.816;-1.214;2023-01-08T12:49:14;99085.86;;;11.34;100.00
47983;BME280;33751;50.816;-1.214;2023-01-08T12:51:52;99120.34;;;11.54;100.00
47983;BME280;33751;50.816;-1.214;2023-01-08T12:54:29;99132.11;;;10.70;100.00